sensor_id;sensor_type;location;lat;lon;timestamp;P1;durP1;ratioP1;P2;durP2;ratioP2
13799;SDS011;6971;50.028;9.258;2022-09-30T00:01:21;4.33;;;3.83;;
13799;SDS011;6971;50.028;9.258;2022-09-30T00:06:25;5.37;;;4.03;;
13799;SDS011;6971;50.028;9.258;2022-09-30T00:11:28;4.10;;;3.70;;
13799;SDS011;6971;50.028;9.258;2022-09-30T00:16:32;5.53;;;4.77;;
13799;SDS011;6971;50.028;9.258;2022-09-30T00:21:34;10.40;;;4.43;;
13799;SDS011;6971;50.028;9.258;2022-09-30T00:26:35;6.40;;;4.00;;
13799;SDS011;6971;50.028;9.258;2022-09-30T00:31:36;7.50;;;3.80;;
13799;SDS011;6971;50.028;9.258;2022-09-30T00:36:39;4.20;;;3.80;;
13799;SDS011;6971;50.028;9.258;2022-09-30T00:42:00;5.07;;;4.30;;
13799;SDS011;6971;50.028;9.258;2022-09-30T00:47:11;5.90;;;3.97;;
13799;SDS011;6971;50.028;9.258;2022-09-30T00:52:24;4.87;;;4.03;;
13799;SDS011;6971;50.028;9.258;2022-09-30T00:57:26;6.23;;;4.40;;
13799;SDS011;6971;50.028;9.258;2022-09-30T01:02:28;4.27;;;3.97;;
13799;SDS011;6971;50.028;9.258;2022-09-30T01:07:29;5.40;;;4.00;;
13799;SDS011;6971;50.028;9.258;2022-09-30T01:12:31;7.33;;;3.87;;
13799;SDS011;6971;50.028;9.258;2022-09-30T01:17:42;7.33;;;4.60;;
13799;SDS011;6971;50.028;9.258;2022-09-30T01:29:15;7.50;;;4.67;;
13799;SDS011;6971;50.028;9.258;2022-09-30T01:49:55;7.67;;;4.37;;
13799;SDS011;6971;50.028;9.258;2022-09-30T02:00:39;7.03;;;3.80;;
13799;SDS011;6971;50.028;9.258;2022-09-30T02:05:52;15.13;;;4.80;;
13799;SDS011;6971;50.028;9.258;2022-09-30T02:11:04;4.90;;;4.23;;
13799;SDS011;6971;50.028;9.258;2022-09-30T02:16:10;7.83;;;4.33;;
13799;SDS011;6971;50.028;9.258;2022-09-30T02:21:17;6.70;;;4.70;;
13799;SDS011;6971;50.028;9.258;2022-09-30T02:26:23;4.63;;;4.00;;
13799;SDS011;6971;50.028;9.258;2022-09-30T02:31:27;8.33;;;4.63;;
13799;SDS011;6971;50.028;9.258;2022-09-30T02:36:38;6.07;;;4.73;;
13799;SDS011;6971;50.028;9.258;2022-09-30T02:41:46;5.40;;;4.60;;
13799;SDS011;6971;50.028;9.258;2022-09-30T03:02:58;5.27;;;3.90;;
13799;SDS011;6971;50.028;9.258;2022-09-30T03:08:05;5.63;;;4.40;;
13799;SDS011;6971;50.028;9.258;2022-09-30T03:29:02;5.93;;;4.57;;
13799;SDS011;6971;50.028;9.258;2022-09-30T03:39:27;5.10;;;4.20;;
13799;SDS011;6971;50.028;9.258;2022-09-30T03:44:41;6.40;;;4.30;;
13799;SDS011;6971;50.028;9.258;2022-09-30T03:49:50;6.47;;;4.93;;
13799;SDS011;6971;50.028;9.258;2022-09-30T03:54:56;8.37;;;5.50;;
13799;SDS011;6971;50.028;9.258;2022-09-30T04:00:07;4.93;;;4.43;;
13799;SDS011;6971;50.028;9.258;2022-09-30T04:05:08;5.50;;;4.23;;
13799;SDS011;6971;50.028;9.258;2022-09-30T04:10:10;5.90;;;5.30;;
13799;SDS011;6971;50.028;9.258;2022-09-30T04:15:11;7.33;;;4.90;;
13799;SDS011;6971;50.028;9.258;2022-09-30T04:20:12;5.53;;;4.43;;
13799;SDS011;6971;50.028;9.258;2022-09-30T04:25:13;5.20;;;4.50;;
13799;SDS011;6971;50.028;9.258;2022-09-30T04:30:13;9.30;;;4.73;;
13799;SDS011;6971;50.028;9.258;2022-09-30T04:35:14;6.07;;;4.70;;
13799;SDS011;6971;50.028;9.258;2022-09-30T04:40:15;6.80;;;4.40;;
13799;SDS011;6971;50.028;9.258;2022-09-30T04:45:16;6.07;;;4.80;;
13799;SDS011;6971;50.028;9.258;2022-09-30T04:50:17;5.30;;;4.40;;
13799;SDS011;6971;50.028;9.258;2022-09-30T04:55:18;4.33;;;3.73;;
13799;SDS011;6971;50.028;9.258;2022-09-30T05:00:19;9.10;;;4.60;;
13799;SDS011;6971;50.028;9.258;2022-09-30T05:05:20;5.73;;;4.10;;
13799;SDS011;6971;50.028;9.258;2022-09-30T05:10:21;8.33;;;5.03;;
13799;SDS011;6971;50.028;9.258;2022-09-30T05:15:22;5.43;;;4.10;;
13799;SDS011;6971;50.028;9.258;2022-09-30T05:20:23;5.57;;;4.53;;
13799;SDS011;6971;50.028;9.258;2022-09-30T05:25:24;7.50;;;5.23;;
13799;SDS011;6971;50.028;9.258;2022-09-30T05:30:25;9.47;;;7.17;;
13799;SDS011;6971;50.028;9.258;2022-09-30T05:35:26;11.87;;;8.27;;
13799;SDS011;6971;50.028;9.258;2022-09-30T05:40:27;11.17;;;8.10;;
13799;SDS011;6971;50.028;9.258;2022-09-30T05:45:28;10.33;;;8.93;;
13799;SDS011;6971;50.028;9.258;2022-09-30T05:50:30;12.13;;;8.20;;
13799;SDS011;6971;50.028;9.258;2022-09-30T05:55:30;7.33;;;6.63;;
13799;SDS011;6971;50.028;9.258;2022-09-30T06:00:32;6.47;;;5.33;;
13799;SDS011;6971;50.028;9.258;2022-09-30T06:05:33;6.27;;;5.20;;
13799;SDS011;6971;50.028;9.258;2022-09-30T06:10:34;5.20;;;4.60;;
13799;SDS011;6971;50.028;9.258;2022-09-30T06:15:36;6.13;;;4.87;;
13799;SDS011;6971;50.028;9.258;2022-09-30T06:20:38;4.90;;;4.40;;
13799;SDS011;6971;50.028;9.258;2022-09-30T06:25:39;7.10;;;4.83;;
13799;SDS011;6971;50.028;9.258;2022-09-30T06:30:39;6.13;;;4.60;;
13799;SDS011;6971;50.028;9.258;2022-09-30T06:35:41;8.87;;;6.20;;
13799;SDS011;6971;50.028;9.258;2022-09-30T06:40:43;7.00;;;4.90;;
13799;SDS011;6971;50.028;9.258;2022-09-30T06:45:46;6.40;;;4.80;;
13799;SDS011;6971;50.028;9.258;2022-09-30T06:50:47;7.13;;;4.60;;
13799;SDS011;6971;50.028;9.258;2022-09-30T06:55:55;6.17;;;4.33;;
13799;SDS011;6971;50.028;9.258;2022-09-30T07:00:57;9.47;;;4.60;;
13799;SDS011;6971;50.028;9.258;2022-09-30T07:06:02;5.53;;;4.87;;
13799;SDS011;6971;50.028;9.258;2022-09-30T07:11:05;6.10;;;5.00;;
13799;SDS011;6971;50.028;9.258;2022-09-30T07:16:12;10.13;;;5.83;;
13799;SDS011;6971;50.028;9.258;2022-09-30T07:21:14;21.10;;;12.87;;
13799;SDS011;6971;50.028;9.258;2022-09-30T07:26:16;15.97;;;12.97;;
13799;SDS011;6971;50.028;9.258;2022-09-30T07:31:23;10.70;;;9.50;;
13799;SDS011;6971;50.028;9.258;2022-09-30T07:36:26;13.03;;;10.43;;
13799;SDS011;6971;50.028;9.258;2022-09-30T07:41:29;11.63;;;10.13;;
13799;SDS011;6971;50.028;9.258;2022-09-30T07:46:31;13.40;;;10.20;;
13799;SDS011;6971;50.028;9.258;2022-09-30T07:51:34;13.60;;;10.17;;
13799;SDS011;6971;50.028;9.258;2022-09-30T07:56:37;17.83;;;13.23;;
13799;SDS011;6971;50.028;9.258;2022-09-30T08:01:39;13.63;;;9.80;;
13799;SDS011;6971;50.028;9.258;2022-09-30T08:06:42;11.40;;;10.20;;
13799;SDS011;6971;50.028;9.258;2022-09-30T08:11:47;9.40;;;8.00;;
13799;SDS011;6971;50.028;9.258;2022-09-30T08:16:49;6.70;;;5.73;;
13799;SDS011;6971;50.028;9.258;2022-09-30T08:21:50;7.40;;;6.07;;
13799;SDS011;6971;50.028;9.258;2022-09-30T08:26:53;7.33;;;5.10;;
13799;SDS011;6971;50.028;9.258;2022-09-30T08:32:02;4.73;;;4.27;;
13799;SDS011;6971;50.028;9.258;2022-09-30T08:37:03;5.40;;;4.57;;
13799;SDS011;6971;50.028;9.258;2022-09-30T08:42:16;6.10;;;4.43;;
13799;SDS011;6971;50.028;9.258;2022-09-30T08:52:51;4.03;;;3.60;;
13799;SDS011;6971;50.028;9.258;2022-09-30T08:57:57;4.33;;;3.30;;
13799;SDS011;6971;50.028;9.258;2022-09-30T09:02:59;4.43;;;3.77;;
13799;SDS011;6971;50.028;9.258;2022-09-30T09:08:27;7.83;;;4.07;;
13799;SDS011;6971;50.028;9.258;2022-09-30T09:13:33;5.97;;;3.70;;
13799;SDS011;6971;50.028;9.258;2022-09-30T09:19:07;5.03;;;3.10;;
13799;SDS011;6971;50.028;9.258;2022-09-30T09:24:20;6.40;;;3.10;;
13799;SDS011;6971;50.028;9.258;2022-09-30T09:34:43;3.00;;;2.10;;
13799;SDS011;6971;50.028;9.258;2022-09-30T09:39:58;4.30;;;2.37;;
13799;SDS011;6971;50.028;9.258;2022-09-30T09:45:19;7.37;;;6.60;;
13799;SDS011;6971;50.028;9.258;2022-09-30T09:50:45;3.07;;;2.20;;
13799;SDS011;6971;50.028;9.258;2022-09-30T09:55:54;3.53;;;2.00;;
13799;SDS011;6971;50.028;9.258;2022-09-30T10:01:09;5.13;;;2.47;;
13799;SDS011;6971;50.028;9.258;2022-09-30T10:06:15;4.93;;;2.37;;
13799;SDS011;6971;50.028;9.258;2022-09-30T10:11:16;4.93;;;2.13;;
13799;SDS011;6971;50.028;9.258;2022-09-30T10:16:30;3.60;;;1.97;;
13799;SDS011;6971;50.028;9.258;2022-09-30T10:21:34;3.83;;;2.10;;
13799;SDS011;6971;50.028;9.258;2022-09-30T10:26:42;2.93;;;2.23;;
13799;SDS011;6971;50.028;9.258;2022-09-30T10:31:44;3.43;;;1.90;;
13799;SDS011;6971;50.028;9.258;2022-09-30T10:36:46;4.03;;;1.90;;
13799;SDS011;6971;50.028;9.258;2022-09-30T10:41:47;5.03;;;2.33;;
13799;SDS011;6971;50.028;9.258;2022-09-30T10:46:49;4.13;;;2.00;;
13799;SDS011;6971;50.028;9.258;2022-09-30T10:51:55;5.40;;;2.20;;
13799;SDS011;6971;50.028;9.258;2022-09-30T10:57:00;5.57;;;2.77;;
13799;SDS011;6971;50.028;9.258;2022-09-30T11:07:32;3.80;;;2.63;;
13799;SDS011;6971;50.028;9.258;2022-09-30T11:12:45;3.50;;;2.70;;
13799;SDS011;6971;50.028;9.258;2022-09-30T11:17:56;7.43;;;2.93;;
13799;SDS011;6971;50.028;9.258;2022-09-30T11:23:22;4.43;;;3.47;;
13799;SDS011;6971;50.028;9.258;2022-09-30T11:39:23;5.50;;;2.70;;
13799;SDS011;6971;50.028;9.258;2022-09-30T11:44:36;3.67;;;2.73;;
13799;SDS011;6971;50.028;9.258;2022-09-30T12:00:33;5.57;;;2.30;;
13799;SDS011;6971;50.028;9.258;2022-09-30T12:05:43;3.20;;;2.47;;
13799;SDS011;6971;50.028;9.258;2022-09-30T12:10:49;2.83;;;2.30;;
13799;SDS011;6971;50.028;9.258;2022-09-30T12:15:54;2.67;;;2.03;;
13799;SDS011;6971;50.028;9.258;2022-09-30T12:20:59;2.00;;;1.80;;
13799;SDS011;6971;50.028;9.258;2022-09-30T12:26:03;3.60;;;2.10;;
13799;SDS011;6971;50.028;9.258;2022-09-30T12:31:30;2.43;;;1.97;;
13799;SDS011;6971;50.028;9.258;2022-09-30T12:47:46;3.13;;;2.00;;
13799;SDS011;6971;50.028;9.258;2022-09-30T12:52:49;1.93;;;1.70;;
13799;SDS011;6971;50.028;9.258;2022-09-30T12:57:51;2.30;;;1.87;;
13799;SDS011;6971;50.028;9.258;2022-09-30T13:02:53;2.53;;;1.77;;
13799;SDS011;6971;50.028;9.258;2022-09-30T13:28:37;5.60;;;1.70;;
13799;SDS011;6971;50.028;9.258;2022-09-30T13:33:40;2.00;;;1.63;;
13799;SDS011;6971;50.028;9.258;2022-09-30T13:38:43;3.07;;;2.00;;
13799;SDS011;6971;50.028;9.258;2022-09-30T13:43:57;6.20;;;2.17;;
13799;SDS011;6971;50.028;9.258;2022-09-30T13:49:11;4.80;;;2.20;;
13799;SDS011;6971;50.028;9.258;2022-09-30T13:54:29;5.27;;;3.53;;
13799;SDS011;6971;50.028;9.258;2022-09-30T13:59:52;4.67;;;2.50;;
13799;SDS011;6971;50.028;9.258;2022-09-30T14:15:58;4.37;;;1.90;;
13799;SDS011;6971;50.028;9.258;2022-09-30T14:21:09;4.53;;;1.90;;
13799;SDS011;6971;50.028;9.258;2022-09-30T14:31:52;4.13;;;1.90;;
13799;SDS011;6971;50.028;9.258;2022-09-30T14:36:55;5.63;;;2.20;;
13799;SDS011;6971;50.028;9.258;2022-09-30T14:41:59;2.03;;;1.87;;
13799;SDS011;6971;50.028;9.258;2022-09-30T14:47:03;4.40;;;2.50;;
13799;SDS011;6971;50.028;9.258;2022-09-30T14:52:05;7.50;;;1.97;;
13799;SDS011;6971;50.028;9.258;2022-09-30T14:57:13;5.67;;;2.27;;
13799;SDS011;6971;50.028;9.258;2022-09-30T15:02:19;15.43;;;3.27;;
13799;SDS011;6971;50.028;9.258;2022-09-30T15:07:20;6.53;;;2.27;;
13799;SDS011;6971;50.028;9.258;2022-09-30T15:12:21;4.10;;;2.13;;
13799;SDS011;6971;50.028;9.258;2022-09-30T15:17:28;4.03;;;2.47;;
13799;SDS011;6971;50.028;9.258;2022-09-30T15:22:34;6.00;;;3.93;;
13799;SDS011;6971;50.028;9.258;2022-09-30T15:27:36;4.00;;;2.40;;
13799;SDS011;6971;50.028;9.258;2022-09-30T15:32:37;3.07;;;2.13;;
13799;SDS011;6971;50.028;9.258;2022-09-30T15:37:38;4.87;;;2.60;;
13799;SDS011;6971;50.028;9.258;2022-09-30T15:42:51;3.60;;;2.77;;
13799;SDS011;6971;50.028;9.258;2022-09-30T15:48:00;4.73;;;3.80;;
13799;SDS011;6971;50.028;9.258;2022-09-30T15:53:04;4.23;;;3.53;;
13799;SDS011;6971;50.028;9.258;2022-09-30T16:03:38;17.93;;;15.50;;
13799;SDS011;6971;50.028;9.258;2022-09-30T16:08:47;19.50;;;14.27;;
13799;SDS011;6971;50.028;9.258;2022-09-30T16:13:50;43.20;;;30.70;;
13799;SDS011;6971;50.028;9.258;2022-09-30T16:18:55;6.07;;;3.37;;
13799;SDS011;6971;50.028;9.258;2022-09-30T16:23:57;6.37;;;3.60;;
13799;SDS011;6971;50.028;9.258;2022-09-30T16:28:58;5.10;;;2.47;;
13799;SDS011;6971;50.028;9.258;2022-09-30T16:34:02;10.17;;;2.90;;
13799;SDS011;6971;50.028;9.258;2022-09-30T16:39:03;3.23;;;2.23;;
13799;SDS011;6971;50.028;9.258;2022-09-30T16:44:04;4.23;;;2.30;;
13799;SDS011;6971;50.028;9.258;2022-09-30T16:49:10;3.27;;;2.20;;
13799;SDS011;6971;50.028;9.258;2022-09-30T16:54:13;4.43;;;2.60;;
13799;SDS011;6971;50.028;9.258;2022-09-30T16:59:15;3.00;;;2.53;;
13799;SDS011;6971;50.028;9.258;2022-09-30T17:04:17;6.17;;;2.60;;
13799;SDS011;6971;50.028;9.258;2022-09-30T17:09:17;3.43;;;2.80;;
13799;SDS011;6971;50.028;9.258;2022-09-30T17:14:19;4.47;;;2.80;;
13799;SDS011;6971;50.028;9.258;2022-09-30T17:19:19;4.60;;;2.50;;
13799;SDS011;6971;50.028;9.258;2022-09-30T17:24:20;5.50;;;2.63;;
13799;SDS011;6971;50.028;9.258;2022-09-30T17:29:22;4.70;;;3.10;;
13799;SDS011;6971;50.028;9.258;2022-09-30T17:34:23;3.53;;;2.90;;
13799;SDS011;6971;50.028;9.258;2022-09-30T17:39:27;4.37;;;3.10;;
13799;SDS011;6971;50.028;9.258;2022-09-30T17:44:28;4.10;;;3.00;;
13799;SDS011;6971;50.028;9.258;2022-09-30T17:49:30;9.37;;;3.57;;
13799;SDS011;6971;50.028;9.258;2022-09-30T17:54:32;7.20;;;3.37;;
13799;SDS011;6971;50.028;9.258;2022-09-30T17:59:34;5.97;;;3.33;;
13799;SDS011;6971;50.028;9.258;2022-09-30T18:04:34;5.33;;;3.37;;
13799;SDS011;6971;50.028;9.258;2022-09-30T18:09:37;6.13;;;3.03;;
13799;SDS011;6971;50.028;9.258;2022-09-30T18:14:38;4.40;;;3.40;;
13799;SDS011;6971;50.028;9.258;2022-09-30T18:19:39;3.37;;;2.67;;
13799;SDS011;6971;50.028;9.258;2022-09-30T18:24:48;5.17;;;4.57;;
13799;SDS011;6971;50.028;9.258;2022-09-30T18:30:08;5.20;;;3.40;;
13799;SDS011;6971;50.028;9.258;2022-09-30T18:35:11;4.70;;;3.90;;
13799;SDS011;6971;50.028;9.258;2022-09-30T18:40:13;6.33;;;3.67;;
13799;SDS011;6971;50.028;9.258;2022-09-30T18:45:17;4.50;;;3.40;;
13799;SDS011;6971;50.028;9.258;2022-09-30T18:50:18;3.90;;;3.43;;
13799;SDS011;6971;50.028;9.258;2022-09-30T18:55:20;4.43;;;3.40;;
13799;SDS011;6971;50.028;9.258;2022-09-30T19:00:21;4.07;;;3.70;;
13799;SDS011;6971;50.028;9.258;2022-09-30T19:05:24;7.13;;;4.20;;
13799;SDS011;6971;50.028;9.258;2022-09-30T19:10:25;6.20;;;3.60;;
13799;SDS011;6971;50.028;9.258;2022-09-30T19:15:26;7.13;;;4.20;;
13799;SDS011;6971;50.028;9.258;2022-09-30T19:20:27;7.43;;;3.80;;
13799;SDS011;6971;50.028;9.258;2022-09-30T19:25:28;8.37;;;3.90;;
13799;SDS011;6971;50.028;9.258;2022-09-30T19:30:29;7.27;;;4.23;;
13799;SDS011;6971;50.028;9.258;2022-09-30T19:35:30;6.10;;;4.23;;
13799;SDS011;6971;50.028;9.258;2022-09-30T19:40:31;4.93;;;4.43;;
13799;SDS011;6971;50.028;9.258;2022-09-30T19:45:31;5.33;;;4.30;;
13799;SDS011;6971;50.028;9.258;2022-09-30T19:50:33;8.37;;;4.10;;
13799;SDS011;6971;50.028;9.258;2022-09-30T19:55:36;7.13;;;4.53;;
13799;SDS011;6971;50.028;9.258;2022-09-30T20:00:37;9.13;;;4.50;;
13799;SDS011;6971;50.028;9.258;2022-09-30T20:05:38;4.97;;;4.30;;
13799;SDS011;6971;50.028;9.258;2022-09-30T20:10:39;8.13;;;4.83;;
13799;SDS011;6971;50.028;9.258;2022-09-30T20:15:39;4.80;;;4.30;;
13799;SDS011;6971;50.028;9.258;2022-09-30T20:20:56;7.00;;;4.83;;
13799;SDS011;6971;50.028;9.258;2022-09-30T20:25:59;9.10;;;4.47;;
13799;SDS011;6971;50.028;9.258;2022-09-30T20:31:04;4.50;;;4.10;;
13799;SDS011;6971;50.028;9.258;2022-09-30T20:36:07;7.87;;;4.17;;
13799;SDS011;6971;50.028;9.258;2022-09-30T20:41:10;5.10;;;4.60;;
13799;SDS011;6971;50.028;9.258;2022-09-30T20:46:11;6.10;;;5.13;;
13799;SDS011;6971;50.028;9.258;2022-09-30T20:51:12;7.23;;;5.23;;
13799;SDS011;6971;50.028;9.258;2022-09-30T20:56:15;8.13;;;5.73;;
13799;SDS011;6971;50.028;9.258;2022-09-30T21:01:18;7.70;;;5.47;;
13799;SDS011;6971;50.028;9.258;2022-09-30T21:06:26;8.80;;;4.67;;
13799;SDS011;6971;50.028;9.258;2022-09-30T21:11:27;5.60;;;5.10;;
13799;SDS011;6971;50.028;9.258;2022-09-30T21:16:28;8.83;;;5.40;;
13799;SDS011;6971;50.028;9.258;2022-09-30T21:21:29;8.23;;;5.27;;
13799;SDS011;6971;50.028;9.258;2022-09-30T21:26:29;7.67;;;5.37;;
13799;SDS011;6971;50.028;9.258;2022-09-30T21:31:31;11.20;;;5.60;;
13799;SDS011;6971;50.028;9.258;2022-09-30T21:36:32;8.00;;;5.50;;
13799;SDS011;6971;50.028;9.258;2022-09-30T21:41:34;5.53;;;5.03;;
13799;SDS011;6971;50.028;9.258;2022-09-30T21:46:35;6.50;;;5.07;;
13799;SDS011;6971;50.028;9.258;2022-09-30T21:51:36;8.87;;;5.30;;
13799;SDS011;6971;50.028;9.258;2022-09-30T21:56:37;7.83;;;5.33;;
13799;SDS011;6971;50.028;9.258;2022-09-30T22:01:38;7.10;;;5.73;;
13799;SDS011;6971;50.028;9.258;2022-09-30T22:06:39;5.63;;;5.13;;
13799;SDS011;6971;50.028;9.258;2022-09-30T22:11:40;9.87;;;5.17;;
13799;SDS011;6971;50.028;9.258;2022-09-30T22:16:42;5.77;;;5.00;;
13799;SDS011;6971;50.028;9.258;2022-09-30T22:21:43;5.93;;;4.80;;
13799;SDS011;6971;50.028;9.258;2022-09-30T22:26:44;7.27;;;4.93;;
13799;SDS011;6971;50.028;9.258;2022-09-30T22:31:45;6.93;;;5.33;;
13799;SDS011;6971;50.028;9.258;2022-09-30T22:36:46;6.13;;;5.53;;
13799;SDS011;6971;50.028;9.258;2022-09-30T22:42:06;5.83;;;5.17;;
13799;SDS011;6971;50.028;9.258;2022-09-30T22:47:07;5.87;;;5.23;;
13799;SDS011;6971;50.028;9.258;2022-09-30T22:52:09;13.97;;;5.73;;
13799;SDS011;6971;50.028;9.258;2022-09-30T22:57:09;6.10;;;4.97;;
13799;SDS011;6971;50.028;9.258;2022-09-30T23:02:12;6.10;;;5.50;;
13799;SDS011;6971;50.028;9.258;2022-09-30T23:07:13;6.90;;;5.90;;
13799;SDS011;6971;50.028;9.258;2022-09-30T23:12:14;8.20;;;5.60;;
13799;SDS011;6971;50.028;9.258;2022-09-30T23:17:17;6.53;;;5.83;;
13799;SDS011;6971;50.028;9.258;2022-09-30T23:22:18;6.20;;;5.60;;
13799;SDS011;6971;50.028;9.258;2022-09-30T23:27:19;6.03;;;5.20;;
13799;SDS011;6971;50.028;9.258;2022-09-30T23:32:20;10.47;;;5.70;;
13799;SDS011;6971;50.028;9.258;2022-09-30T23:37:21;8.77;;;5.93;;
13799;SDS011;6971;50.028;9.258;2022-09-30T23:42:21;6.00;;;5.40;;
13799;SDS011;6971;50.028;9.258;2022-09-30T23:47:22;7.50;;;5.47;;
13799;SDS011;6971;50.028;9.258;2022-09-30T23:52:23;15.13;;;5.93;;
13799;SDS011;6971;50.028;9.258;2022-09-30T23:57:23;10.03;;;5.67;;
